createdAt,value
2022-10-29T00:00:50.487Z,84.46
2022-10-29T00:03:17.166Z,84.73
2022-10-29T00:05:43.617Z,84.86
2022-10-29T00:08:10.075Z,84.91
2022-10-29T00:10:36.476Z,85.28
2022-10-29T00:13:03.487Z,85.16
2022-10-29T00:15:30.136Z,84.85
2022-10-29T00:17:56.919Z,85.12
2022-10-29T00:20:23.972Z,85.39
2022-10-29T00:22:54.296Z,85.65
2022-10-29T00:25:21.020Z,85.13
2022-10-29T00:27:47.420Z,85.16
2022-10-29T00:30:14.033Z,85.68
2022-10-29T00:32:40.486Z,85.92
2022-10-29T00:35:07.199Z,86.14
2022-10-29T00:37:35.055Z,86.09
2022-10-29T00:40:01.518Z,86.36
2022-10-29T00:42:28.018Z,86.29
2022-10-29T00:44:54.494Z,86.38
2022-10-29T00:47:32.785Z,86.35
2022-10-29T00:50:05.770Z,86.59
2022-10-29T00:52:33.547Z,86.75
2022-10-29T00:55:02.660Z,86.95
2022-10-29T00:57:37.386Z,87.08
2022-10-29T01:00:04.390Z,86.87
2022-10-29T01:02:32.036Z,87.12
2022-10-29T01:04:59.353Z,87.24
2022-10-29T01:07:26.293Z,87.75
2022-10-29T01:09:52.810Z,88.09
2022-10-29T01:12:33.499Z,88.66
2022-10-29T01:15:37.134Z,88.92
2022-10-29T01:18:06.518Z,89.46
2022-10-29T01:20:54.187Z,89.62
2022-10-29T01:24:11.558Z,90.38
2022-10-29T01:27:05.849Z,92.63
2022-10-29T01:30:00.447Z,92.84
2022-10-29T01:32:36.488Z,93.06
2022-10-29T01:35:17.211Z,93.69
2022-10-29T01:37:57.386Z,93.95
2022-10-29T01:40:27.568Z,94.13
2022-10-29T01:42:58.877Z,94.18
2022-10-29T01:45:56.549Z,94.46
2022-10-29T01:48:30.543Z,95.02
2022-10-29T01:51:03.920Z,95.31
2022-10-29T01:53:31.621Z,95.24
2022-10-29T01:55:58.057Z,95.17
2022-10-29T01:58:24.981Z,95.75
2022-10-29T02:01:16.009Z,95.82
2022-10-29T02:04:02.076Z,96.33
2022-10-29T02:06:43.248Z,96.17
2022-10-29T02:09:39.030Z,96.63
2022-10-29T02:12:27.730Z,96.84
2022-10-29T02:14:59.516Z,97.15
2022-10-29T02:17:26.355Z,97.29
2022-10-29T02:19:52.808Z,97.69
2022-10-29T02:22:19.324Z,97.50
2022-10-29T02:24:45.806Z,97.86
2022-10-29T02:27:12.400Z,98.18
2022-10-29T02:29:38.941Z,98.33
2022-10-29T02:32:05.751Z,98.08
2022-10-29T02:34:32.231Z,98.19
2022-10-29T02:36:58.675Z,98.28
2022-10-29T02:39:25.246Z,97.81
2022-10-29T02:41:51.706Z,97.48
2022-10-29T02:44:18.155Z,96.97
2022-10-29T02:46:44.695Z,96.82
2022-10-29T02:49:11.194Z,96.49
2022-10-29T02:51:37.666Z,96.80
2022-10-29T02:54:04.325Z,96.97
2022-10-29T02:56:30.793Z,96.83
2022-10-29T02:58:57.351Z,96.69
2022-10-29T03:01:24.071Z,97.00
2022-10-29T03:03:50.628Z,97.03
2022-10-29T03:06:19.255Z,97.10
2022-10-29T03:08:46.143Z,97.43
2022-10-29T03:11:13.282Z,98.13
2022-10-29T03:13:40.061Z,98.48
2022-10-29T03:16:06.611Z,98.16
2022-10-29T03:18:33.088Z,98.01
2022-10-29T03:20:59.542Z,97.86
2022-10-29T03:23:26.149Z,97.88
2022-10-29T03:25:55.890Z,97.88
2022-10-29T03:28:23.997Z,97.77
2022-10-29T03:30:50.534Z,97.83
2022-10-29T03:33:17.022Z,98.04
2022-10-29T03:35:43.565Z,98.66
2022-10-29T03:38:10.105Z,98.62
2022-10-29T03:40:36.574Z,98.75
2022-10-29T03:43:03.167Z,98.50
2022-10-29T03:45:29.638Z,97.92
2022-10-29T03:47:57.612Z,98.09
2022-10-29T03:50:24.460Z,98.00
2022-10-29T03:52:51.014Z,98.07
2022-10-29T03:55:17.557Z,98.35
2022-10-29T03:57:44.056Z,98.38
2022-10-29T04:00:10.865Z,98.72
2022-10-29T04:02:37.403Z,99.03
2022-10-29T04:05:04.117Z,99.25
2022-10-29T04:07:30.626Z,99.27
2022-10-29T04:09:57.129Z,99.12
2022-10-29T04:12:23.680Z,99.01
2022-10-29T04:17:16.553Z,98.82
2022-10-29T04:19:42.998Z,98.83
2022-10-29T04:28:41.485Z,100.00
2022-10-29T04:30:29.504Z,99.76
2022-10-29T04:33:00.058Z,100.00
2022-10-29T04:35:27.729Z,100.00
2022-10-29T04:37:57.207Z,99.87
2022-10-29T04:40:24.533Z,99.42
2022-10-29T04:42:51.280Z,99.36
2022-10-29T04:45:18.015Z,99.05
2022-10-29T04:47:44.774Z,98.91
2022-10-29T04:50:11.253Z,98.47
2022-10-29T04:52:37.760Z,98.70
2022-10-29T04:55:04.629Z,98.66
2022-10-29T04:57:31.127Z,98.44
2022-10-29T04:59:57.551Z,98.30
2022-10-29T05:02:24.037Z,98.46
2022-10-29T05:04:50.474Z,98.96
2022-10-29T05:07:16.977Z,98.74
2022-10-29T05:09:43.448Z,97.75
2022-10-29T05:12:09.921Z,97.07
2022-10-29T05:14:36.389Z,97.28
2022-10-29T05:17:02.886Z,97.28
2022-10-29T05:19:29.336Z,98.46
2022-10-29T05:21:55.826Z,98.95
2022-10-29T05:24:22.315Z,99.29
2022-10-29T05:26:48.792Z,99.64
2022-10-29T05:29:15.321Z,99.89
2022-10-29T05:31:41.775Z,99.96
2022-10-29T05:34:08.249Z,99.79
2022-10-29T05:36:34.699Z,99.84
2022-10-29T05:39:01.156Z,100.00
2022-10-29T05:41:27.736Z,100.00
2022-10-29T05:43:54.164Z,100.00
2022-10-29T05:46:20.599Z,100.00
2022-10-29T05:48:47.058Z,100.00
2022-10-29T05:51:13.500Z,100.00
2022-10-29T05:53:39.950Z,100.00
2022-10-29T05:56:07.289Z,100.00
2022-10-29T05:58:33.739Z,100.00
2022-10-29T06:01:00.176Z,100.00
2022-10-29T06:03:26.570Z,100.00
2022-10-29T06:05:52.985Z,100.00
2022-10-29T06:08:19.400Z,100.00
2022-10-29T06:10:45.812Z,100.00
2022-10-29T06:13:13.412Z,100.00
2022-10-29T06:15:39.878Z,100.00
2022-10-29T06:18:07.736Z,100.00
2022-10-29T06:20:34.203Z,100.00
2022-10-29T06:23:00.626Z,100.00
2022-10-29T06:25:27.976Z,100.00
2022-10-29T06:28:01.857Z,100.00
2022-10-29T06:30:32.232Z,100.00
2022-10-29T06:32:59.429Z,100.00
2022-10-29T06:35:26.469Z,100.00
2022-10-29T06:37:53.147Z,100.00
2022-10-29T06:40:19.863Z,100.00
2022-10-29T06:42:46.303Z,100.00
2022-10-29T06:45:13.027Z,100.00
2022-10-29T06:47:44.231Z,99.71
2022-10-29T06:50:12.272Z,98.80
2022-10-29T06:52:38.996Z,99.93
2022-10-29T06:55:06.517Z,100.00
2022-10-29T06:57:32.939Z,100.00
2022-10-29T07:00:03.715Z,100.00
2022-10-29T07:02:33.918Z,100.00
2022-10-29T07:05:00.307Z,100.00
2022-10-29T07:07:28.360Z,100.00
2022-10-29T07:09:54.823Z,100.00
2022-10-29T07:12:21.238Z,100.00
2022-10-29T07:14:47.623Z,100.00
2022-10-29T07:17:14.038Z,100.00
2022-10-29T07:19:40.465Z,100.00
2022-10-29T07:22:06.881Z,100.00
2022-10-29T07:24:33.293Z,100.00
2022-10-29T07:26:59.921Z,99.81
2022-10-29T07:29:26.364Z,99.99
2022-10-29T07:31:52.792Z,99.26
2022-10-29T07:34:19.260Z,99.13
2022-10-29T07:36:45.677Z,98.91
2022-10-29T07:39:12.081Z,98.83
2022-10-29T07:41:38.492Z,98.95
2022-10-29T07:44:05.005Z,99.04
2022-10-29T07:46:31.416Z,99.13
2022-10-29T07:48:57.807Z,99.32
2022-10-29T07:51:24.222Z,98.56
2022-10-29T07:53:50.672Z,97.92
2022-10-29T07:56:17.073Z,97.94
2022-10-29T07:58:43.578Z,97.34
2022-10-29T08:01:10.058Z,96.83
2022-10-29T08:03:36.665Z,96.43
2022-10-29T08:06:03.111Z,96.14
2022-10-29T08:08:30.845Z,95.42
2022-10-29T08:11:01.913Z,95.10
2022-10-29T08:13:28.636Z,94.97
2022-10-29T08:15:55.142Z,95.04
2022-10-29T08:18:21.545Z,95.66
2022-10-29T08:20:47.968Z,95.37
2022-10-29T08:23:14.666Z,95.38
2022-10-29T08:25:42.713Z,95.45
2022-10-29T08:28:11.876Z,94.89
2022-10-29T08:30:38.836Z,95.09
2022-10-29T08:33:05.679Z,95.10
2022-10-29T08:35:32.782Z,94.96
2022-10-29T08:37:59.418Z,95.14
2022-10-29T08:40:39.621Z,94.81
2022-10-29T08:43:24.808Z,94.29
2022-10-29T08:45:55.427Z,94.36
2022-10-29T08:48:33.931Z,94.63
2022-10-29T08:51:05.820Z,94.97
2022-10-29T08:53:39.700Z,94.79
2022-10-29T08:56:07.489Z,94.52
2022-10-29T08:58:58.325Z,94.43
2022-10-29T09:01:25.042Z,93.95
2022-10-29T09:03:51.754Z,93.61
2022-10-29T09:06:32.686Z,93.46
2022-10-29T09:09:36.654Z,92.93
2022-10-29T09:12:28.644Z,92.65
2022-10-29T09:15:24.078Z,91.84
2022-10-29T09:18:16.241Z,91.03
2022-10-29T09:20:51.323Z,90.61
2022-10-29T09:23:43.657Z,90.34
2022-10-29T09:26:16.265Z,89.55
2022-10-29T09:29:17.502Z,89.26
2022-10-29T09:31:49.875Z,89.00
2022-10-29T09:34:40.430Z,89.25
2022-10-29T09:37:21.477Z,89.04
2022-10-29T09:39:47.999Z,88.36
2022-10-29T09:42:34.061Z,88.27
2022-10-29T09:45:02.731Z,87.59
2022-10-29T09:47:43.515Z,87.55
2022-10-29T09:50:35.750Z,87.07
2022-10-29T09:53:02.343Z,87.06
2022-10-29T09:55:41.930Z,87.15
2022-10-29T09:58:18.656Z,87.01
2022-10-29T10:00:45.147Z,87.13
2022-10-29T10:03:25.358Z,86.31
2022-10-29T10:05:57.748Z,86.07
2022-10-29T10:08:24.198Z,86.26
2022-10-29T10:10:56.075Z,86.12
2022-10-29T10:13:27.393Z,85.79
2022-10-29T10:15:56.873Z,84.67
2022-10-29T10:18:26.375Z,84.59
2022-10-29T10:21:23.973Z,83.06
2022-10-29T10:23:54.473Z,82.11
2022-10-29T10:26:42.931Z,81.98
2022-10-29T10:29:22.991Z,81.84
2022-10-29T10:31:51.010Z,81.86
2022-10-29T10:34:20.196Z,81.79
2022-10-29T10:36:51.106Z,81.62
2022-10-29T10:39:38.912Z,82.08
2022-10-29T10:42:16.736Z,81.39
2022-10-29T10:44:52.238Z,81.48
2022-10-29T10:47:24.943Z,81.26
2022-10-29T10:49:51.362Z,80.33
2022-10-29T10:52:29.241Z,80.32
2022-10-29T10:54:58.825Z,80.89
2022-10-29T10:57:33.103Z,81.11
2022-10-29T11:00:09.443Z,81.44
2022-10-29T11:02:50.799Z,81.47
2022-10-29T11:05:17.156Z,82.28
2022-10-29T11:08:04.111Z,80.99
2022-10-29T11:10:44.096Z,81.11
2022-10-29T11:13:15.111Z,80.36
2022-10-29T11:16:04.098Z,80.31
2022-10-29T11:18:40.800Z,80.20
2022-10-29T11:21:33.215Z,80.61
2022-10-29T11:24:05.227Z,80.78
2022-10-29T11:26:34.388Z,81.04
2022-10-29T11:29:08.948Z,80.27
2022-10-29T11:31:52.585Z,80.52
2022-10-29T11:34:34.656Z,80.68
2022-10-29T11:37:07.401Z,80.34
2022-10-29T11:39:46.268Z,80.16
2022-10-29T11:42:13.690Z,79.82
2022-10-29T11:44:40.977Z,79.48
2022-10-29T11:47:22.651Z,79.78
2022-10-29T11:50:07.260Z,80.19
2022-10-29T11:52:54.068Z,80.66
2022-10-29T11:55:30.753Z,80.45
2022-10-29T11:58:11.262Z,80.57
2022-10-29T12:01:05.764Z,80.81
2022-10-29T12:03:44.247Z,80.79
2022-10-29T12:06:33.139Z,80.79
2022-10-29T12:09:20.713Z,81.00
2022-10-29T12:11:55.708Z,81.08
2022-10-29T12:14:29.936Z,80.82
2022-10-29T12:16:56.311Z,80.30
2022-10-29T12:19:52.561Z,79.95
2022-10-29T12:22:44.641Z,80.17
2022-10-29T12:25:19.455Z,80.27
2022-10-29T12:28:11.637Z,79.26
2022-10-29T12:30:47.836Z,79.44
2022-10-29T12:33:24.805Z,79.24
2022-10-29T12:38:40.678Z,78.22
2022-10-29T12:41:17.673Z,78.28
2022-10-29T12:43:44.476Z,77.94
2022-10-29T12:46:22.374Z,77.55
2022-10-29T12:48:58.256Z,77.29
2022-10-29T12:51:36.845Z,76.82
2022-10-29T12:54:24.581Z,75.95
2022-10-29T12:56:51.011Z,75.71
2022-10-29T12:59:23.428Z,74.77
2022-10-29T13:05:05.936Z,74.08
2022-10-29T13:07:33.442Z,73.70
2022-10-29T13:10:25.118Z,74.38
2022-10-29T13:13:08.132Z,74.29
2022-10-29T13:15:43.577Z,73.10
2022-10-29T13:18:12.913Z,73.87
2022-10-29T13:20:41.576Z,73.42
2022-10-29T13:23:23.273Z,73.41
2022-10-29T13:25:59.804Z,73.70
2022-10-29T13:28:26.114Z,73.14
2022-10-29T13:31:13.656Z,73.29
2022-10-29T13:33:40.001Z,73.47
2022-10-29T13:36:31.831Z,73.85
2022-10-29T13:39:07.479Z,74.75
2022-10-29T13:41:43.369Z,74.35
2022-10-29T13:44:26.317Z,74.37
2022-10-29T13:47:04.331Z,74.60
2022-10-29T13:49:33.801Z,75.19
2022-10-29T13:52:01.046Z,75.72
2022-10-29T13:54:31.774Z,75.76
2022-10-29T13:57:00.346Z,76.30
2022-10-29T13:59:38.186Z,76.24
2022-10-29T14:02:22.121Z,76.76
2022-10-29T14:04:51.025Z,77.24
2022-10-29T14:07:22.066Z,77.28
2022-10-29T14:09:52.274Z,77.52
2022-10-29T14:12:22.084Z,77.71
2022-10-29T14:15:10.828Z,78.07
2022-10-29T14:17:37.343Z,77.97
2022-10-29T14:20:03.968Z,78.06
2022-10-29T14:22:36.436Z,78.12
2022-10-29T14:25:32.280Z,77.97
2022-10-29T14:28:11.008Z,78.28
2022-10-29T14:30:37.472Z,78.81
2022-10-29T14:33:17.721Z,78.60
2022-10-29T14:35:44.459Z,79.12
2022-10-29T14:38:12.169Z,78.95
2022-10-29T14:40:38.681Z,79.31
2022-10-29T14:43:05.443Z,79.35
2022-10-29T14:45:32.155Z,79.56
2022-10-29T14:48:03.169Z,80.16
2022-10-29T14:50:30.460Z,79.93
2022-10-29T14:53:03.297Z,80.22
2022-10-29T14:55:41.958Z,80.53
2022-10-29T14:58:11.268Z,80.65
2022-10-29T15:00:38.469Z,80.89
2022-10-29T15:03:06.803Z,81.03
2022-10-29T15:05:36.067Z,81.04
2022-10-29T15:08:18.919Z,81.51
2022-10-29T15:10:50.801Z,81.70
2022-10-29T15:13:31.236Z,82.02
2022-10-29T15:16:08.640Z,81.91
2022-10-29T15:18:35.729Z,81.88
2022-10-29T15:21:03.951Z,82.42
2022-10-29T15:23:36.821Z,82.66
2022-10-29T15:26:14.301Z,82.77
2022-10-29T15:28:42.315Z,82.88
2022-10-29T15:31:31.160Z,82.90
2022-10-29T15:34:10.427Z,83.17
2022-10-29T15:36:50.919Z,83.36
2022-10-29T15:39:26.551Z,83.45
2022-10-29T15:41:55.490Z,83.78
2022-10-29T15:44:29.417Z,83.42
2022-10-29T15:47:00.794Z,83.56
2022-10-29T15:49:31.454Z,83.85
2022-10-29T15:52:00.289Z,83.60
2022-10-29T15:54:27.584Z,83.93
2022-10-29T15:56:53.977Z,83.88
2022-10-29T15:59:24.406Z,84.06
2022-10-29T16:01:50.943Z,84.40
2022-10-29T16:04:17.483Z,84.60
2022-10-29T16:06:43.965Z,84.71
2022-10-29T16:09:17.225Z,84.43
2022-10-29T16:11:43.651Z,84.91
2022-10-29T16:14:10.144Z,84.86
2022-10-29T16:16:36.783Z,85.28
2022-10-29T16:19:03.261Z,85.09
2022-10-29T16:21:29.682Z,85.15
2022-10-29T16:23:56.091Z,85.12
2022-10-29T16:26:24.087Z,85.21
2022-10-29T16:28:52.602Z,85.38
2022-10-29T16:31:24.768Z,85.26
2022-10-29T16:33:53.124Z,85.21
2022-10-29T16:36:19.590Z,85.09
2022-10-29T16:38:46.015Z,84.58
2022-10-29T16:41:17.131Z,84.47
2022-10-29T16:43:44.185Z,84.51
2022-10-29T16:46:12.079Z,84.08
2022-10-29T16:48:38.735Z,84.42
2022-10-29T16:51:05.657Z,84.39
2022-10-29T16:53:32.065Z,84.49
2022-10-29T16:55:58.497Z,84.35
2022-10-29T16:58:24.946Z,84.79
2022-10-29T17:00:51.417Z,84.70
2022-10-29T17:03:18.099Z,84.77
2022-10-29T17:05:45.846Z,84.90
2022-10-29T17:08:12.747Z,85.18
2022-10-29T17:10:39.411Z,85.28
2022-10-29T17:13:11.162Z,85.41
2022-10-29T17:15:41.045Z,85.50
2022-10-29T17:18:07.594Z,85.50
2022-10-29T17:20:34.012Z,85.11
2022-10-29T17:23:00.440Z,85.02
2022-10-29T17:25:26.859Z,84.69
2022-10-29T17:27:53.316Z,84.26
2022-10-29T17:30:19.747Z,84.42
2022-10-29T17:32:46.190Z,85.25
2022-10-29T17:35:12.620Z,85.29
2022-10-29T17:37:39.055Z,85.70
2022-10-29T17:40:08.098Z,86.38
2022-10-29T17:42:35.119Z,86.73
2022-10-29T17:45:01.582Z,87.07
2022-10-29T17:47:28.112Z,86.91
2022-10-29T17:49:54.629Z,87.30
2022-10-29T17:52:22.231Z,87.24
2022-10-29T17:54:48.714Z,87.54
2022-10-29T17:57:16.133Z,88.05
2022-10-29T17:59:42.528Z,87.91
2022-10-29T18:02:10.938Z,88.03
2022-10-29T18:04:37.539Z,88.46
2022-10-29T18:07:03.975Z,88.60
2022-10-29T18:09:30.393Z,88.76
2022-10-29T18:11:56.884Z,88.93
2022-10-29T18:14:23.310Z,89.21
2022-10-29T18:16:49.726Z,89.76
2022-10-29T18:19:17.217Z,89.94
2022-10-29T18:21:43.624Z,90.27
2022-10-29T18:24:10.171Z,90.47
2022-10-29T18:26:36.774Z,90.49
2022-10-29T18:29:10.123Z,90.53
2022-10-29T18:31:37.778Z,90.72
2022-10-29T18:34:06.203Z,90.97
2022-10-29T18:36:35.335Z,90.94
2022-10-29T18:39:01.765Z,91.08
2022-10-29T18:41:28.217Z,91.10
2022-10-29T18:43:55.300Z,91.36
2022-10-29T18:46:22.792Z,91.59
2022-10-29T18:48:49.996Z,91.87
2022-10-29T18:51:20.802Z,91.90
2022-10-29T18:53:47.250Z,92.01
2022-10-29T18:56:19.093Z,92.05
2022-10-29T18:58:45.926Z,92.15
2022-10-29T19:01:20.657Z,92.28
2022-10-29T19:03:52.337Z,92.36
2022-10-29T19:06:20.066Z,92.56
2022-10-29T19:08:47.058Z,92.63
2022-10-29T19:11:15.727Z,92.89
2022-10-29T19:13:42.416Z,93.01
2022-10-29T19:16:11.339Z,93.13
2022-10-29T19:18:38.739Z,92.97
2022-10-29T19:21:07.123Z,92.99
2022-10-29T19:23:34.284Z,93.29
2022-10-29T19:26:13.321Z,93.12
2022-10-29T19:28:40.320Z,92.93
2022-10-29T19:31:08.683Z,93.07
2022-10-29T19:33:35.705Z,92.99
2022-10-29T19:36:03.026Z,93.15
2022-10-29T19:38:29.545Z,93.23
2022-10-29T19:40:56.961Z,93.22
2022-10-29T19:43:24.429Z,93.14
2022-10-29T19:45:51.105Z,93.23
2022-10-29T19:48:18.932Z,93.28
2022-10-29T19:50:45.814Z,93.36
2022-10-29T19:53:12.752Z,93.42
2022-10-29T19:55:40.269Z,93.25
2022-10-29T19:58:06.963Z,93.31
2022-10-29T20:00:33.392Z,93.13
2022-10-29T20:03:00.269Z,92.89
2022-10-29T20:05:27.039Z,92.76
2022-10-29T20:07:53.476Z,92.94
2022-10-29T20:10:19.876Z,92.98
2022-10-29T20:12:46.328Z,93.11
2022-10-29T20:15:12.870Z,93.23
2022-10-29T20:17:39.292Z,93.07
2022-10-29T20:20:06.478Z,93.14
2022-10-29T20:22:32.962Z,93.40
2022-10-29T20:24:59.367Z,93.44
2022-10-29T20:27:25.824Z,93.74
2022-10-29T20:29:52.247Z,93.84
2022-10-29T20:32:18.854Z,94.04
2022-10-29T20:34:45.256Z,93.91
2022-10-29T20:37:11.749Z,94.16
2022-10-29T20:39:38.166Z,94.05
2022-10-29T20:42:04.629Z,94.24
2022-10-29T20:44:31.096Z,94.28
2022-10-29T20:46:57.557Z,94.61
2022-10-29T20:49:24.018Z,94.24
2022-10-29T20:51:50.453Z,94.33
2022-10-29T20:54:16.879Z,94.66
2022-10-29T20:56:43.301Z,94.81
2022-10-29T20:59:09.820Z,94.68
2022-10-29T21:01:36.400Z,94.72
2022-10-29T21:04:02.943Z,94.85
2022-10-29T21:06:29.893Z,94.79
2022-10-29T21:08:56.413Z,94.67
2022-10-29T21:11:23.594Z,94.42
2022-10-29T21:13:50.587Z,94.14
2022-10-29T21:16:27.278Z,94.04
2022-10-29T21:18:55.923Z,94.13
2022-10-29T21:21:22.934Z,94.02
2022-10-29T21:23:49.493Z,94.20
2022-10-29T21:26:18.530Z,93.96
2022-10-29T21:28:45.336Z,94.13
2022-10-29T21:31:11.805Z,94.29
2022-10-29T21:33:38.380Z,94.50
2022-10-29T21:36:05.273Z,94.64
2022-10-29T21:38:33.234Z,94.72
2022-10-29T21:41:03.021Z,95.03
2022-10-29T21:43:29.694Z,95.16
2022-10-29T21:45:57.120Z,94.96
2022-10-29T21:48:27.757Z,95.27
2022-10-29T21:51:07.837Z,94.79
2022-10-29T21:53:34.584Z,94.70
2022-10-29T21:56:02.802Z,94.46
2022-10-29T21:58:29.708Z,94.58
2022-10-29T22:01:03.506Z,94.56
2022-10-29T22:03:31.581Z,94.62
2022-10-29T22:06:11.508Z,95.23
2022-10-29T22:08:38.285Z,95.34
2022-10-29T22:11:05.209Z,95.45
2022-10-29T22:13:32.641Z,95.48
2022-10-29T22:15:59.493Z,95.33
2022-10-29T22:18:26.332Z,94.89
2022-10-29T22:21:13.605Z,95.30
2022-10-29T22:23:44.488Z,95.04
2022-10-29T22:26:11.638Z,95.38
2022-10-29T22:28:38.048Z,95.52
2022-10-29T22:31:05.224Z,95.54
2022-10-29T22:33:32.084Z,95.63
2022-10-29T22:36:19.909Z,95.59
2022-10-29T22:38:46.572Z,95.77
2022-10-29T22:41:17.518Z,95.60
2022-10-29T22:43:44.457Z,95.62
2022-10-29T22:46:12.677Z,95.86
2022-10-29T22:48:39.201Z,96.38
2022-10-29T22:51:06.530Z,96.45
2022-10-29T22:53:33.565Z,96.12
2022-10-29T22:56:00.632Z,95.76
2022-10-29T22:58:27.186Z,96.01
2022-10-29T23:01:02.719Z,95.84
2022-10-29T23:03:29.207Z,95.90
2022-10-29T23:05:57.331Z,96.27
2022-10-29T23:08:24.224Z,96.28
2022-10-29T23:10:50.623Z,96.57
2022-10-29T23:13:17.068Z,96.75
2022-10-29T23:15:48.003Z,96.76
2022-10-29T23:18:14.570Z,96.94
2022-10-29T23:20:41.154Z,97.18
2022-10-29T23:23:07.720Z,97.14
2022-10-29T23:25:34.180Z,97.46
2022-10-29T23:28:00.601Z,97.36
2022-10-29T23:30:27.037Z,97.50
2022-10-29T23:32:53.435Z,97.68
2022-10-29T23:35:19.849Z,97.55
2022-10-29T23:37:46.253Z,97.33
2022-10-29T23:40:12.768Z,97.36
2022-10-29T23:42:39.157Z,97.48
2022-10-29T23:45:07.707Z,97.28
2022-10-29T23:47:34.327Z,97.08
2022-10-29T23:50:00.744Z,97.22
2022-10-29T23:52:27.157Z,97.31
2022-10-29T23:54:53.546Z,96.92
2022-10-29T23:57:19.945Z,96.73
2022-10-29T23:59:46.350Z,96.83
